createdAt,value
2022-12-17T00:00:44.142Z,25
2022-12-17T00:01:57.154Z,38
2022-12-17T00:03:09.687Z,31
2022-12-17T00:04:21.920Z,29
2022-12-17T00:05:34.034Z,26
2022-12-17T00:06:46.382Z,36
2022-12-17T00:07:59.303Z,36
2022-12-17T00:09:11.802Z,28
2022-12-17T00:10:24.010Z,30
2022-12-17T00:11:36.127Z,30
2022-12-17T00:12:48.262Z,32
2022-12-17T00:14:00.582Z,28
2022-12-17T00:15:12.746Z,37
2022-12-17T00:16:25.190Z,26
2022-12-17T00:17:37.323Z,30
2022-12-17T00:18:49.834Z,32
2022-12-17T00:20:02.327Z,30
2022-12-17T00:21:14.847Z,32
2022-12-17T00:22:27.050Z,33
2022-12-17T00:23:39.392Z,32
2022-12-17T00:24:51.346Z,32
2022-12-17T00:26:03.681Z,31
2022-12-17T00:27:15.846Z,34
2022-12-17T00:28:28.162Z,29
2022-12-17T00:29:40.478Z,32
2022-12-17T00:30:52.494Z,31
2022-12-17T00:32:06.018Z,30
2022-12-17T00:33:17.994Z,32
2022-12-17T00:34:30.207Z,33
2022-12-17T00:35:42.410Z,35
2022-12-17T00:36:55.510Z,40
2022-12-17T00:38:09.407Z,35
2022-12-17T00:39:21.674Z,37
2022-12-17T00:40:33.849Z,32
2022-12-17T00:41:46.018Z,32
2022-12-17T00:43:01.243Z,34
2022-12-17T00:44:14.520Z,33
2022-12-17T00:45:26.735Z,40
2022-12-17T00:46:39.865Z,33
2022-12-17T00:47:47.107Z,40
2022-12-17T00:48:59.384Z,37
2022-12-17T00:50:11.523Z,34
2022-12-17T00:51:23.833Z,38
2022-12-17T00:52:36.039Z,40
2022-12-17T00:53:48.139Z,38
2022-12-17T00:55:00.598Z,34
2022-12-17T00:56:13.070Z,39
2022-12-17T00:57:25.538Z,36
2022-12-17T00:58:37.983Z,34
2022-12-17T00:59:50.211Z,36
2022-12-17T01:01:02.508Z,35
2022-12-17T01:02:14.762Z,31
2022-12-17T01:03:28.205Z,28
2022-12-17T01:04:40.546Z,38
2022-12-17T01:05:52.732Z,35
2022-12-17T01:07:05.216Z,42
2022-12-17T01:08:17.246Z,39
2022-12-17T01:09:29.668Z,31
2022-12-17T01:10:42.245Z,30
2022-12-17T01:11:56.468Z,33
2022-12-17T01:13:07.470Z,35
2022-12-17T01:14:19.735Z,33
2022-12-17T01:15:32.024Z,31
2022-12-17T01:16:44.232Z,30
2022-12-17T01:17:56.401Z,35
2022-12-17T01:19:08.631Z,29
2022-12-17T01:20:21.093Z,30
2022-12-17T01:21:33.548Z,26
2022-12-17T01:22:45.998Z,27
2022-12-17T01:23:58.403Z,32
2022-12-17T01:25:10.654Z,32
2022-12-17T01:26:22.913Z,27
2022-12-17T01:27:35.067Z,27
2022-12-17T01:28:48.140Z,25
2022-12-17T01:30:00.548Z,27
2022-12-17T01:31:13.661Z,33
2022-12-17T01:32:25.930Z,30
2022-12-17T01:33:38.546Z,30
2022-12-17T01:34:50.908Z,33
2022-12-17T01:36:03.101Z,34
2022-12-17T01:37:15.401Z,30
2022-12-17T01:38:27.570Z,33
2022-12-17T01:39:39.743Z,32
2022-12-17T01:40:51.893Z,28
2022-12-17T01:42:04.014Z,34
2022-12-17T01:43:16.322Z,42
2022-12-17T01:44:36.898Z,37
2022-12-17T01:45:52.158Z,31
2022-12-17T01:47:04.650Z,30
2022-12-17T01:48:16.812Z,28
2022-12-17T01:49:28.970Z,28
2022-12-17T01:50:41.154Z,27
2022-12-17T01:51:54.501Z,38
2022-12-17T01:53:06.982Z,33
2022-12-17T01:54:19.397Z,25
2022-12-17T01:55:31.525Z,33
2022-12-17T01:56:43.798Z,28
2022-12-17T01:57:57.071Z,32
2022-12-17T01:59:09.197Z,30
2022-12-17T02:00:21.464Z,39
2022-12-17T02:01:33.769Z,38
2022-12-17T02:02:45.962Z,37
2022-12-17T02:03:58.126Z,38
2022-12-17T02:05:10.337Z,33
2022-12-17T02:06:22.589Z,37
2022-12-17T02:07:34.815Z,29
2022-12-17T02:08:52.037Z,26
2022-12-17T02:10:09.391Z,36
2022-12-17T02:11:29.647Z,28
2022-12-17T02:12:49.521Z,27
2022-12-17T02:14:01.801Z,31
2022-12-17T02:15:22.298Z,28
2022-12-17T02:16:34.429Z,28
2022-12-17T02:17:46.586Z,25
2022-12-17T02:18:58.765Z,27
2022-12-17T02:20:21.201Z,27
2022-12-17T02:21:41.823Z,47
2022-12-17T02:22:54.248Z,31
2022-12-17T02:24:12.634Z,33
2022-12-17T02:25:30.750Z,37
2022-12-17T02:26:46.554Z,28
2022-12-17T02:27:58.970Z,31
2022-12-17T02:29:11.142Z,30
2022-12-17T02:30:23.377Z,27
2022-12-17T02:31:35.627Z,35
2022-12-17T02:32:47.725Z,31
2022-12-17T02:33:59.937Z,32
2022-12-17T02:35:12.726Z,28
2022-12-17T02:36:29.942Z,33
2022-12-17T02:37:42.220Z,29
2022-12-17T02:38:54.379Z,28
2022-12-17T02:40:06.655Z,27
2022-12-17T02:41:19.173Z,32
2022-12-17T02:42:31.454Z,32
2022-12-17T02:43:43.657Z,32
2022-12-17T02:44:55.941Z,32
2022-12-17T02:46:08.277Z,30
2022-12-17T02:47:20.466Z,37
2022-12-17T02:48:32.513Z,45
2022-12-17T02:49:44.703Z,27
2022-12-17T02:50:56.931Z,40
2022-12-17T02:52:09.265Z,36
2022-12-17T02:53:21.664Z,29
2022-12-17T02:54:34.830Z,25
2022-12-17T02:55:47.256Z,33
2022-12-17T02:56:59.651Z,34
2022-12-17T02:58:11.756Z,35
2022-12-17T02:59:24.061Z,35
2022-12-17T03:00:36.549Z,35
2022-12-17T03:01:49.193Z,30
2022-12-17T03:03:02.693Z,34
2022-12-17T03:04:14.953Z,32
2022-12-17T03:05:44.330Z,31
2022-12-17T03:06:39.897Z,27
2022-12-17T03:07:52.402Z,29
2022-12-17T03:09:04.739Z,33
2022-12-17T03:10:17.093Z,26
2022-12-17T03:11:29.475Z,39
2022-12-17T03:12:41.745Z,35
2022-12-17T03:13:54.920Z,30
2022-12-17T03:15:07.376Z,33
2022-12-17T03:16:19.526Z,30
2022-12-17T03:17:31.610Z,31
2022-12-17T03:18:43.802Z,31
2022-12-17T03:19:56.133Z,35
2022-12-17T03:21:08.890Z,36
2022-12-17T03:22:21.091Z,29
2022-12-17T03:23:33.501Z,25
2022-12-17T03:24:45.400Z,29
2022-12-17T03:25:57.631Z,28
2022-12-17T03:27:09.915Z,31
2022-12-17T03:28:22.277Z,31
2022-12-17T03:29:34.658Z,33
2022-12-17T03:30:49.027Z,33
2022-12-17T03:32:01.682Z,46
2022-12-17T03:33:15.342Z,44
2022-12-17T03:34:27.825Z,33
2022-12-17T03:35:39.837Z,34
2022-12-17T03:36:52.049Z,30
2022-12-17T03:38:04.610Z,33
2022-12-17T03:39:17.003Z,38
2022-12-17T03:40:29.366Z,41
2022-12-17T03:41:41.537Z,31
2022-12-17T03:42:53.634Z,30
2022-12-17T03:44:11.937Z,32
2022-12-17T03:45:24.073Z,32
2022-12-17T03:46:36.548Z,30
2022-12-17T03:47:48.782Z,33
2022-12-17T03:49:09.080Z,28
2022-12-17T03:50:21.382Z,26
2022-12-17T03:51:33.397Z,32
2022-12-17T03:52:45.605Z,28
2022-12-17T03:53:57.858Z,28
2022-12-17T03:55:10.269Z,28
2022-12-17T03:56:22.374Z,36
2022-12-17T03:57:34.550Z,38
2022-12-17T03:58:46.673Z,37
2022-12-17T03:59:58.900Z,32
2022-12-17T04:01:11.994Z,38
2022-12-17T04:02:24.036Z,38
2022-12-17T04:03:34.200Z,38
2022-12-17T04:04:46.106Z,34
2022-12-17T04:05:58.367Z,32
2022-12-17T04:07:10.585Z,41
2022-12-17T04:08:22.820Z,39
2022-12-17T04:09:35.349Z,34
2022-12-17T04:10:48.002Z,33
2022-12-17T04:12:00.384Z,32
2022-12-17T04:13:16.438Z,40
2022-12-17T04:14:29.248Z,41
2022-12-17T04:15:41.607Z,45
2022-12-17T04:16:53.817Z,54
2022-12-17T04:18:05.858Z,52
2022-12-17T04:19:18.393Z,57
2022-12-17T04:20:30.842Z,55
2022-12-17T04:21:43.104Z,59
2022-12-17T04:22:55.625Z,61
2022-12-17T04:24:08.202Z,50
2022-12-17T04:25:20.340Z,50
2022-12-17T04:26:32.450Z,52
2022-12-17T04:27:44.823Z,49
2022-12-17T04:28:56.922Z,60
2022-12-17T04:30:09.177Z,58
2022-12-17T04:31:21.665Z,51
2022-12-17T04:32:35.481Z,58
2022-12-17T04:33:47.261Z,59
2022-12-17T04:34:59.454Z,65
2022-12-17T04:36:11.742Z,62
2022-12-17T04:37:23.946Z,69
2022-12-17T04:38:36.413Z,64
2022-12-17T04:39:48.798Z,63
2022-12-17T04:41:01.050Z,59
2022-12-17T04:42:13.373Z,60
2022-12-17T04:43:25.630Z,66
2022-12-17T04:44:37.654Z,67
2022-12-17T04:45:49.890Z,69
2022-12-17T04:47:02.006Z,68
2022-12-17T04:48:14.362Z,70
2022-12-17T04:49:26.482Z,67
2022-12-17T04:50:38.701Z,73
2022-12-17T04:51:50.884Z,66
2022-12-17T04:53:03.161Z,82
2022-12-17T04:54:15.341Z,67
2022-12-17T04:55:27.453Z,72
2022-12-17T04:56:39.717Z,62
2022-12-17T04:57:51.916Z,69
2022-12-17T04:59:07.243Z,72
2022-12-17T05:00:19.751Z,70
2022-12-17T05:01:32.194Z,76
2022-12-17T05:02:44.538Z,78
2022-12-17T05:03:56.644Z,75
2022-12-17T05:05:08.793Z,73
2022-12-17T05:06:21.523Z,89
2022-12-17T05:07:33.841Z,79
2022-12-17T05:08:45.872Z,76
2022-12-17T05:09:58.089Z,81
2022-12-17T05:11:10.284Z,79
2022-12-17T05:12:22.537Z,79
2022-12-17T05:13:35.503Z,82
2022-12-17T05:14:47.381Z,84
2022-12-17T05:15:59.646Z,77
2022-12-17T05:17:11.721Z,79
2022-12-17T05:18:24.413Z,89
2022-12-17T05:19:36.661Z,89
2022-12-17T05:20:49.109Z,82
2022-12-17T05:22:01.125Z,87
2022-12-17T05:23:13.293Z,78
2022-12-17T05:24:26.275Z,85
2022-12-17T05:25:39.084Z,85
2022-12-17T05:26:51.417Z,89
2022-12-17T05:28:04.105Z,84
2022-12-17T05:29:16.444Z,75
2022-12-17T05:30:28.552Z,77
2022-12-17T05:31:43.862Z,80
2022-12-17T05:32:56.084Z,85
2022-12-17T05:34:08.256Z,79
2022-12-17T05:35:21.691Z,78
2022-12-17T05:36:34.124Z,82
2022-12-17T05:37:46.624Z,92
2022-12-17T05:38:58.641Z,91
2022-12-17T05:40:12.649Z,85
2022-12-17T05:41:22.960Z,90
2022-12-17T05:42:35.102Z,90
2022-12-17T05:43:47.373Z,88
2022-12-17T05:44:59.623Z,91
2022-12-17T05:46:12.136Z,92
2022-12-17T05:47:24.109Z,84
2022-12-17T05:48:36.213Z,96
2022-12-17T05:49:48.420Z,95
2022-12-17T05:51:00.626Z,95
2022-12-17T05:52:13.965Z,96
2022-12-17T05:53:26.111Z,96
2022-12-17T05:54:38.277Z,87
2022-12-17T05:55:50.476Z,91
2022-12-17T05:57:02.721Z,86
2022-12-17T05:58:15.113Z,87
2022-12-17T05:59:27.596Z,84
2022-12-17T06:00:39.756Z,80
2022-12-17T06:01:52.208Z,87
2022-12-17T06:03:04.391Z,91
2022-12-17T06:04:17.502Z,94
2022-12-17T06:05:29.624Z,96
2022-12-17T06:06:41.778Z,91
2022-12-17T06:07:54.017Z,92
2022-12-17T06:09:08.988Z,88
2022-12-17T06:10:21.156Z,96
2022-12-17T06:11:33.200Z,89
2022-12-17T06:12:45.403Z,86
2022-12-17T06:14:00.468Z,81
2022-12-17T06:15:12.601Z,88
2022-12-17T06:16:24.760Z,85
2022-12-17T06:17:36.893Z,85
2022-12-17T06:18:57.176Z,80
2022-12-17T06:20:09.396Z,99
2022-12-17T06:21:21.552Z,85
2022-12-17T06:22:34.004Z,85
2022-12-17T06:23:46.064Z,86
2022-12-17T06:24:58.568Z,89
2022-12-17T06:26:11.165Z,82
2022-12-17T06:27:23.272Z,82
2022-12-17T06:28:36.701Z,80
2022-12-17T06:29:49.172Z,80
2022-12-17T06:31:01.511Z,90
2022-12-17T06:32:13.517Z,83
2022-12-17T06:33:25.873Z,77
2022-12-17T06:34:37.975Z,75
2022-12-17T06:35:50.492Z,78
2022-12-17T06:37:02.860Z,78
2022-12-17T06:38:15.167Z,73
2022-12-17T06:39:27.456Z,74
2022-12-17T06:40:39.486Z,75
2022-12-17T06:41:51.728Z,80
2022-12-17T06:43:03.929Z,78
2022-12-17T06:44:16.104Z,79
2022-12-17T06:45:26.484Z,79
2022-12-17T06:46:40.147Z,73
2022-12-17T06:47:52.438Z,80
2022-12-17T06:49:04.624Z,78
2022-12-17T06:50:16.704Z,71
2022-12-17T06:51:28.860Z,71
2022-12-17T06:52:41.044Z,75
2022-12-17T06:53:53.244Z,69
2022-12-17T06:55:06.267Z,72
2022-12-17T06:56:18.750Z,78
2022-12-17T06:57:30.891Z,75
2022-12-17T06:58:43.099Z,75
2022-12-17T06:59:55.384Z,74
2022-12-17T07:01:07.589Z,72
2022-12-17T07:02:20.256Z,73
2022-12-17T07:03:32.384Z,83
2022-12-17T07:04:44.923Z,79
2022-12-17T07:05:57.368Z,74
2022-12-17T07:07:09.596Z,72
2022-12-17T07:08:21.788Z,71
2022-12-17T07:09:33.912Z,69
2022-12-17T07:10:46.173Z,78
2022-12-17T07:11:58.450Z,71
2022-12-17T07:13:10.924Z,67
2022-12-17T07:14:23.468Z,65
2022-12-17T07:15:35.568Z,80
2022-12-17T07:16:48.547Z,70
2022-12-17T07:18:01.093Z,68
2022-12-17T07:19:13.468Z,67
2022-12-17T07:20:25.566Z,70
2022-12-17T07:21:37.686Z,68
2022-12-17T07:22:49.877Z,69
2022-12-17T07:24:02.060Z,68
2022-12-17T07:25:14.400Z,71
2022-12-17T07:26:26.511Z,73
2022-12-17T07:27:39.635Z,65
2022-12-17T07:28:57.054Z,75
2022-12-17T07:30:09.569Z,66
2022-12-17T07:31:22.088Z,66
2022-12-17T07:32:34.108Z,68
2022-12-17T07:33:46.527Z,67
2022-12-17T07:34:58.680Z,62
2022-12-17T07:36:10.910Z,58
2022-12-17T07:37:24.001Z,76
2022-12-17T07:38:36.397Z,77
2022-12-17T07:39:48.672Z,93
2022-12-17T07:41:00.813Z,68
2022-12-17T07:42:12.914Z,86
2022-12-17T07:43:25.339Z,74
2022-12-17T07:44:37.852Z,76
2022-12-17T07:45:50.183Z,83
2022-12-17T07:47:02.311Z,80
2022-12-17T07:48:14.568Z,90
2022-12-17T07:49:26.816Z,86
2022-12-17T07:50:39.403Z,85
2022-12-17T07:51:54.723Z,89
2022-12-17T07:53:06.820Z,81
2022-12-17T07:54:19.144Z,75
2022-12-17T07:55:31.476Z,84
2022-12-17T07:56:43.765Z,79
2022-12-17T07:57:56.238Z,87
2022-12-17T07:59:09.349Z,73
2022-12-17T08:00:21.707Z,78
2022-12-17T08:01:34.203Z,83
2022-12-17T08:02:46.378Z,79
2022-12-17T08:04:00.907Z,79
2022-12-17T08:05:12.902Z,87
2022-12-17T08:06:25.407Z,86
2022-12-17T08:07:39.350Z,69
2022-12-17T08:08:52.579Z,69
2022-12-17T08:10:05.044Z,75
2022-12-17T08:11:17.371Z,71
2022-12-17T08:12:29.522Z,71
2022-12-17T08:13:41.635Z,74
2022-12-17T08:14:53.911Z,84
2022-12-17T08:16:06.222Z,72
2022-12-17T08:17:18.975Z,74
2022-12-17T08:18:31.047Z,79
2022-12-17T08:19:43.307Z,72
2022-12-17T08:20:55.504Z,74
2022-12-17T08:22:07.710Z,82
2022-12-17T08:23:20.134Z,73
2022-12-17T08:24:33.719Z,74
2022-12-17T08:25:46.035Z,78
2022-12-17T08:26:58.388Z,70
2022-12-17T08:28:15.815Z,71
2022-12-17T08:29:23.223Z,67
2022-12-17T08:30:35.641Z,65
2022-12-17T08:31:47.948Z,65
2022-12-17T08:33:00.160Z,76
2022-12-17T08:34:13.326Z,66
2022-12-17T08:35:25.792Z,69
2022-12-17T08:36:38.255Z,63
2022-12-17T08:37:50.443Z,59
2022-12-17T08:39:08.228Z,68
2022-12-17T08:40:20.336Z,59
2022-12-17T08:41:32.703Z,60
2022-12-17T08:42:44.936Z,73
2022-12-17T08:43:59.935Z,64
2022-12-17T08:45:12.886Z,64
2022-12-17T08:46:25.242Z,66
2022-12-17T08:47:37.713Z,64
2022-12-17T08:48:50.148Z,66
2022-12-17T08:50:02.472Z,61
2022-12-17T08:51:14.536Z,64
2022-12-17T08:52:26.827Z,60
2022-12-17T08:53:40.161Z,61
2022-12-17T08:54:52.231Z,63
2022-12-17T08:56:04.620Z,65
2022-12-17T08:57:30.550Z,61
2022-12-17T08:58:28.800Z,59
2022-12-17T08:59:41.140Z,53
2022-12-17T09:00:53.392Z,63
2022-12-17T09:02:05.903Z,70
2022-12-17T09:03:17.811Z,67
2022-12-17T09:04:29.860Z,60
2022-12-17T09:05:42.187Z,58
2022-12-17T09:06:54.528Z,64
2022-12-17T09:08:06.852Z,60
2022-12-17T09:09:18.899Z,59
2022-12-17T09:10:30.995Z,65
2022-12-17T09:11:43.239Z,50
2022-12-17T09:12:59.855Z,62
2022-12-17T09:14:08.368Z,68
2022-12-17T09:15:20.403Z,60
2022-12-17T09:16:32.726Z,61
2022-12-17T09:17:45.067Z,56
2022-12-17T09:18:57.435Z,64
2022-12-17T09:20:09.876Z,63
2022-12-17T09:21:22.048Z,60
2022-12-17T09:22:34.083Z,59
2022-12-17T09:23:46.897Z,56
2022-12-17T09:24:59.023Z,59
2022-12-17T09:26:11.789Z,56
2022-12-17T09:27:24.435Z,64
2022-12-17T09:28:36.662Z,71
2022-12-17T09:29:48.955Z,69
2022-12-17T09:31:01.319Z,65
2022-12-17T09:32:11.491Z,60
2022-12-17T09:33:23.771Z,60
2022-12-17T09:34:38.263Z,67
2022-12-17T09:35:50.547Z,65
2022-12-17T09:37:02.707Z,59
2022-12-17T09:38:15.435Z,59
2022-12-17T09:39:28.215Z,57
2022-12-17T09:40:40.506Z,59
2022-12-17T09:41:52.650Z,58
2022-12-17T09:43:15.079Z,76
2022-12-17T09:44:30.414Z,67
2022-12-17T09:45:42.535Z,65
2022-12-17T09:46:54.803Z,65
2022-12-17T09:48:10.087Z,67
2022-12-17T09:49:30.331Z,71
2022-12-17T09:50:42.689Z,75
2022-12-17T09:51:55.056Z,70
2022-12-17T09:53:07.840Z,68
2022-12-17T09:54:22.839Z,75
2022-12-17T09:55:41.902Z,90
2022-12-17T09:56:55.129Z,94
2022-12-17T09:58:07.620Z,90
2022-12-17T09:59:24.926Z,86
2022-12-17T10:00:37.943Z,80
2022-12-17T10:01:50.407Z,81
2022-12-17T10:03:02.820Z,86
2022-12-17T10:04:19.835Z,80
2022-12-17T10:05:42.634Z,81
2022-12-17T10:06:54.827Z,84
2022-12-17T10:08:07.167Z,85
2022-12-17T10:09:19.399Z,86
2022-12-17T10:10:31.424Z,87
2022-12-17T10:11:46.210Z,87
2022-12-17T10:12:59.365Z,96
2022-12-17T10:14:11.851Z,89
2022-12-17T10:15:24.166Z,104
2022-12-17T10:16:36.539Z,84
2022-12-17T10:17:48.906Z,99
2022-12-17T10:19:01.427Z,95
2022-12-17T10:20:19.011Z,86
2022-12-17T10:21:36.718Z,87
2022-12-17T10:22:48.994Z,81
2022-12-17T10:24:01.246Z,78
2022-12-17T10:25:13.566Z,84
2022-12-17T10:26:25.907Z,83
2022-12-17T10:27:38.410Z,95
2022-12-17T10:28:50.625Z,100
2022-12-17T10:30:08.060Z,94
2022-12-17T10:31:20.396Z,96
2022-12-17T10:32:32.703Z,91
2022-12-17T10:33:44.927Z,103
2022-12-17T10:35:01.816Z,113
2022-12-17T10:36:12.107Z,100
2022-12-17T10:37:24.349Z,106
2022-12-17T10:38:36.335Z,97
2022-12-17T10:39:48.538Z,96
2022-12-17T10:41:00.934Z,97
2022-12-17T10:42:23.454Z,94
2022-12-17T10:43:36.515Z,89
2022-12-17T10:44:48.683Z,97
2022-12-17T10:46:00.987Z,99
2022-12-17T10:47:13.208Z,96
2022-12-17T10:48:28.614Z,94
2022-12-17T10:49:40.907Z,96
2022-12-17T10:51:01.020Z,96
2022-12-17T10:52:23.582Z,106
2022-12-17T10:53:36.191Z,98
2022-12-17T10:54:49.508Z,90
2022-12-17T10:56:00.382Z,93
2022-12-17T10:57:12.635Z,89
2022-12-17T10:58:30.926Z,87
2022-12-17T10:59:48.267Z,87
2022-12-17T11:01:00.493Z,94
2022-12-17T11:02:15.950Z,104
2022-12-17T11:03:30.965Z,107
2022-12-17T11:04:43.063Z,119
2022-12-17T11:05:59.557Z,109
2022-12-17T11:07:07.574Z,107
2022-12-17T11:08:25.163Z,106
2022-12-17T11:09:37.404Z,113
2022-12-17T11:10:49.679Z,109
2022-12-17T11:12:07.156Z,111
2022-12-17T11:13:14.336Z,99
2022-12-17T11:14:34.382Z,105
2022-12-17T11:15:46.793Z,101
2022-12-17T11:16:58.949Z,102
2022-12-17T11:18:11.878Z,105
2022-12-17T11:19:28.521Z,108
2022-12-17T11:20:46.110Z,118
2022-12-17T11:22:00.888Z,111
2022-12-17T11:23:20.910Z,98
2022-12-17T11:24:32.883Z,97
2022-12-17T11:25:47.831Z,93
2022-12-17T11:27:00.015Z,86
2022-12-17T11:28:12.259Z,89
2022-12-17T11:29:27.786Z,94
2022-12-17T11:30:40.081Z,100
2022-12-17T11:31:58.021Z,95
2022-12-17T11:33:15.454Z,97
2022-12-17T11:34:32.997Z,86
2022-12-17T11:35:53.814Z,103
2022-12-17T11:37:06.290Z,95
2022-12-17T11:38:21.746Z,96
2022-12-17T11:39:42.382Z,97
2022-12-17T11:40:59.666Z,96
2022-12-17T11:42:11.895Z,102
2022-12-17T11:43:29.531Z,112
2022-12-17T11:44:50.254Z,112
2022-12-17T11:46:08.453Z,116
2022-12-17T11:47:31.075Z,124
2022-12-17T11:48:48.537Z,120
2022-12-17T11:50:05.880Z,135
2022-12-17T11:51:23.259Z,141
2022-12-17T11:52:40.883Z,144
2022-12-17T11:53:55.654Z,152
2022-12-17T11:55:18.201Z,145
2022-12-17T11:56:35.886Z,139
2022-12-17T11:57:53.162Z,120
2022-12-17T11:59:05.506Z,115
2022-12-17T12:00:25.909Z,117
2022-12-17T12:01:40.449Z,117
2022-12-17T12:02:56.145Z,99
2022-12-17T12:04:12.119Z,98
2022-12-17T12:05:29.230Z,103
2022-12-17T12:06:46.574Z,91
2022-12-17T12:08:06.527Z,102
2022-12-17T12:09:26.942Z,109
2022-12-17T12:10:47.212Z,114
2022-12-17T12:12:02.554Z,95
2022-12-17T12:13:24.959Z,106
2022-12-17T12:14:47.723Z,100
2022-12-17T12:16:08.185Z,107
2022-12-17T12:17:23.462Z,112
2022-12-17T12:18:46.098Z,103
2022-12-17T12:20:04.359Z,101
2022-12-17T12:21:21.466Z,107
2022-12-17T12:22:41.604Z,105
2022-12-17T12:23:59.173Z,101
2022-12-17T12:25:11.294Z,106
2022-12-17T12:26:31.394Z,101
2022-12-17T12:27:48.834Z,102
2022-12-17T12:29:06.441Z,104
2022-12-17T12:30:21.515Z,94
2022-12-17T12:31:33.540Z,94
2022-12-17T12:32:55.933Z,99
2022-12-17T12:34:13.358Z,102
2022-12-17T12:35:25.601Z,93
2022-12-17T12:36:37.587Z,92
2022-12-17T12:37:49.762Z,89
2022-12-17T12:39:02.213Z,89
2022-12-17T12:40:14.350Z,94
2022-12-17T12:41:32.083Z,91
2022-12-17T12:42:54.482Z,96
2022-12-17T12:44:09.918Z,88
2022-12-17T12:45:32.639Z,91
2022-12-17T12:46:55.042Z,94
2022-12-17T12:48:07.494Z,86
2022-12-17T12:49:30.025Z,100
2022-12-17T12:50:43.242Z,90
2022-12-17T12:51:58.191Z,99
2022-12-17T12:53:10.346Z,96
2022-12-17T12:54:22.735Z,91
2022-12-17T12:55:35.391Z,95
2022-12-17T12:56:47.418Z,92
2022-12-17T12:57:59.685Z,88
2022-12-17T12:59:22.217Z,79
2022-12-17T13:00:34.840Z,85
2022-12-17T13:01:53.339Z,84
2022-12-17T13:03:05.508Z,88
2022-12-17T13:04:17.531Z,90
2022-12-17T13:05:32.470Z,82
2022-12-17T13:06:39.357Z,91
2022-12-17T13:07:54.183Z,91
2022-12-17T13:09:09.423Z,98
2022-12-17T13:10:19.689Z,97
2022-12-17T13:11:26.851Z,92
2022-12-17T13:12:33.922Z,88
2022-12-17T13:13:43.930Z,96
2022-12-17T13:14:51.205Z,96
2022-12-17T13:16:06.596Z,103
2022-12-17T13:17:23.818Z,92
2022-12-17T13:18:36.179Z,98
2022-12-17T13:19:45.507Z,97
2022-12-17T13:21:00.379Z,101
2022-12-17T13:22:23.881Z,92
2022-12-17T13:23:24.973Z,89
2022-12-17T13:24:37.575Z,79
2022-12-17T13:25:47.199Z,80
2022-12-17T13:26:54.415Z,87
2022-12-17T13:28:01.459Z,91
2022-12-17T13:29:08.634Z,82
2022-12-17T13:30:26.930Z,87
2022-12-17T13:31:37.784Z,96
2022-12-17T13:32:44.858Z,85
2022-12-17T13:34:01.995Z,78
2022-12-17T13:35:11.814Z,94
2022-12-17T13:36:29.167Z,96
2022-12-17T13:37:46.813Z,88
2022-12-17T13:39:01.628Z,92
2022-12-17T13:40:13.914Z,86
2022-12-17T13:41:29.184Z,86
2022-12-17T13:42:36.043Z,85
2022-12-17T13:43:43.253Z,86
2022-12-17T13:44:58.178Z,89
2022-12-17T13:46:05.218Z,86
2022-12-17T13:47:12.632Z,88
2022-12-17T13:48:22.166Z,92
2022-12-17T13:49:29.386Z,88
2022-12-17T13:50:37.144Z,92
2022-12-17T13:51:43.896Z,92
2022-12-17T13:52:51.012Z,92
2022-12-17T13:53:58.181Z,93
2022-12-17T13:55:05.267Z,101
2022-12-17T13:56:12.486Z,107
2022-12-17T13:57:19.666Z,104
2022-12-17T13:58:26.868Z,95
2022-12-17T13:59:33.710Z,103
2022-12-17T14:00:40.806Z,92
2022-12-17T14:01:48.169Z,95
2022-12-17T14:02:55.382Z,83
2022-12-17T14:04:06.884Z,89
2022-12-17T14:05:09.590Z,87
2022-12-17T14:06:24.847Z,86
2022-12-17T14:07:31.769Z,86
2022-12-17T14:08:39.267Z,100
2022-12-17T14:09:46.067Z,86
2022-12-17T14:10:53.287Z,83
2022-12-17T14:12:05.509Z,81
2022-12-17T14:13:17.881Z,90
2022-12-17T14:14:24.961Z,80
2022-12-17T14:15:37.531Z,82
2022-12-17T14:16:49.100Z,73
2022-12-17T14:17:51.723Z,82
2022-12-17T14:18:58.879Z,81
2022-12-17T14:20:06.049Z,81
2022-12-17T14:21:15.746Z,79
2022-12-17T14:22:23.138Z,72
2022-12-17T14:23:38.486Z,72
2022-12-17T14:24:45.692Z,79
2022-12-17T14:25:52.982Z,70
2022-12-17T14:27:00.110Z,74
2022-12-17T14:28:07.170Z,71
2022-12-17T14:29:24.587Z,70
2022-12-17T14:30:31.485Z,72
2022-12-17T14:31:41.439Z,70
2022-12-17T14:32:48.297Z,74
2022-12-17T14:33:55.456Z,65
2022-12-17T14:35:05.230Z,73
2022-12-17T14:36:12.385Z,79
2022-12-17T14:37:19.613Z,69
2022-12-17T14:38:37.778Z,81
2022-12-17T14:39:34.321Z,72
2022-12-17T14:40:41.247Z,68
2022-12-17T14:41:48.425Z,67
2022-12-17T14:43:00.701Z,67
2022-12-17T14:44:07.895Z,67
2022-12-17T14:45:25.378Z,61
2022-12-17T14:46:32.738Z,67
2022-12-17T14:47:39.904Z,74
2022-12-17T14:48:57.117Z,69
2022-12-17T14:50:06.998Z,66
2022-12-17T14:51:14.217Z,61
2022-12-17T14:52:31.741Z,62
2022-12-17T14:53:44.084Z,67
2022-12-17T14:54:51.386Z,65
2022-12-17T14:55:58.392Z,64
2022-12-17T14:57:05.443Z,59
2022-12-17T14:58:13.587Z,54
2022-12-17T14:59:20.841Z,59
2022-12-17T15:00:31.396Z,71
2022-12-17T15:01:38.553Z,68
2022-12-17T15:02:45.841Z,81
2022-12-17T15:03:56.232Z,84
2022-12-17T15:05:03.129Z,86
2022-12-17T15:06:10.180Z,91
2022-12-17T15:07:18.120Z,87
2022-12-17T15:08:28.049Z,90
2022-12-17T15:09:38.125Z,90
2022-12-17T15:10:45.133Z,97
2022-12-17T15:11:53.401Z,100
2022-12-17T15:13:00.582Z,98
2022-12-17T15:14:08.722Z,106
2022-12-17T15:15:16.046Z,94
2022-12-17T15:16:23.155Z,95
2022-12-17T15:17:30.290Z,83
2022-12-17T15:18:37.452Z,85
2022-12-17T15:19:44.351Z,79
2022-12-17T15:20:51.665Z,79
2022-12-17T15:21:58.690Z,79
2022-12-17T15:23:05.801Z,84
2022-12-17T15:24:18.986Z,81
2022-12-17T15:25:26.756Z,77
2022-12-17T15:26:33.661Z,84
2022-12-17T15:27:40.819Z,84
2022-12-17T15:28:48.273Z,76
2022-12-17T15:29:55.210Z,79
2022-12-17T15:31:02.647Z,77
2022-12-17T15:32:10.325Z,79
2022-12-17T15:33:22.853Z,72
2022-12-17T15:34:30.817Z,76
2022-12-17T15:35:37.761Z,78
2022-12-17T15:36:45.010Z,83
2022-12-17T15:37:52.162Z,84
2022-12-17T15:38:59.357Z,90
2022-12-17T15:40:06.593Z,76
2022-12-17T15:41:13.709Z,75
2022-12-17T15:42:25.975Z,87
2022-12-17T15:43:38.360Z,79
2022-12-17T15:44:45.580Z,79
2022-12-17T15:45:52.890Z,71
2022-12-17T15:46:59.845Z,78
2022-12-17T15:48:07.036Z,73
2022-12-17T15:49:19.225Z,74
2022-12-17T15:50:27.520Z,73
2022-12-17T15:51:34.777Z,79
2022-12-17T15:52:41.909Z,77
2022-12-17T15:53:49.105Z,77
2022-12-17T15:54:56.234Z,83
2022-12-17T15:56:03.298Z,72
2022-12-17T15:57:14.051Z,77
2022-12-17T15:58:17.706Z,81
2022-12-17T15:59:24.827Z,76
2022-12-17T16:00:31.970Z,72
2022-12-17T16:01:39.009Z,72
2022-12-17T16:02:46.325Z,70
2022-12-17T16:03:54.095Z,71
2022-12-17T16:05:00.913Z,72
2022-12-17T16:06:08.005Z,76
2022-12-17T16:07:15.482Z,87
2022-12-17T16:08:22.838Z,73
2022-12-17T16:09:30.141Z,77
2022-12-17T16:10:36.963Z,78
2022-12-17T16:11:44.084Z,75
2022-12-17T16:12:51.220Z,74
2022-12-17T16:13:58.397Z,81
2022-12-17T16:15:05.661Z,85
2022-12-17T16:16:12.802Z,87
2022-12-17T16:17:19.873Z,74
2022-12-17T16:18:27.113Z,79
2022-12-17T16:19:34.461Z,87
2022-12-17T16:20:41.733Z,85
2022-12-17T16:21:49.197Z,82
2022-12-17T16:22:56.397Z,85
2022-12-17T16:24:03.590Z,86
2022-12-17T16:25:10.795Z,100
2022-12-17T16:26:18.002Z,108
2022-12-17T16:27:25.096Z,105
2022-12-17T16:28:32.042Z,91
2022-12-17T16:29:39.021Z,100
2022-12-17T16:30:46.240Z,100
2022-12-17T16:32:03.701Z,99
2022-12-17T16:33:10.851Z,100
2022-12-17T16:34:18.779Z,92
2022-12-17T16:35:25.610Z,86
2022-12-17T16:36:32.486Z,96
2022-12-17T16:37:39.653Z,98
2022-12-17T16:38:46.845Z,92
2022-12-17T16:39:59.653Z,91
2022-12-17T16:41:01.050Z,98
2022-12-17T16:42:14.493Z,95
2022-12-17T16:43:21.623Z,97
2022-12-17T16:44:28.750Z,87
2022-12-17T16:45:36.076Z,81
2022-12-17T16:46:43.264Z,93
2022-12-17T16:47:50.501Z,84
2022-12-17T16:48:57.682Z,83
2022-12-17T16:50:14.944Z,90
2022-12-17T16:51:28.371Z,100
2022-12-17T16:52:29.217Z,80
2022-12-17T16:53:36.213Z,89
2022-12-17T16:54:43.324Z,84
2022-12-17T16:55:50.444Z,83
2022-12-17T16:56:57.565Z,82
2022-12-17T16:58:04.680Z,78
2022-12-17T16:59:11.890Z,84
2022-12-17T17:00:19.093Z,79
2022-12-17T17:01:26.455Z,78
2022-12-17T17:02:33.746Z,74
2022-12-17T17:03:40.771Z,72
2022-12-17T17:04:47.893Z,89
2022-12-17T17:05:55.037Z,97